Time;durP1;ratioP1;P1;durP2;ratioP2;P2;SDS_P1;SDS_P2;PMS_P1;PMS_P2;Temp;Humidity;BMP_temperature;BMP_pressure;BME280_temperature;BME280_humidity;BME280_pressure;Samples;Min_cycle;Max_cycle;Signal;HPM_P1;HPM_P2
2022/04/17 00:01:55;;;;;;;3.05;2.70;;;;;;;;;;5062076;28;20180;-82
2022/04/17 00:04:21;;;;;;;4.00;2.90;;;;;;;;;;5042451;28;20620;-81
2022/04/17 00:06:47;;;;;;;3.72;2.83;;;;;;;;;;5061779;28;20239;-81
2022/04/17 00:09:13;;;;;;;3.38;3.00;;;;;;;;;;5061863;28;20216;-81
2022/04/17 00:11:42;;;;;;;3.10;2.80;;;;;;;;;;5062612;28;20207;-82
2022/04/17 00:14:09;;;;;;;2.40;2.00;;;;;;;;;;5064779;28;20431;-81
2022/04/17 00:16:35;;;;;;;6.72;3.65;;;;;;;;;;5064850;28;20188;-81
2022/04/17 00:19:01;;;;;;;5.60;2.50;;;;;;;;;;5063157;28;20205;-82
2022/04/17 00:21:27;;;;;;;5.10;2.90;;;;;;;;;;5062745;28;20432;-82
2022/04/17 00:23:53;;;;;;;3.23;2.43;;;;;;;;;;5063581;28;20439;-81
2022/04/17 00:26:19;;;;;;;2.33;2.13;;;;;;;;;;5064547;28;20407;-82
2022/04/17 00:28:46;;;;;;;3.50;3.20;;;;;;;;;;5065348;28;20448;-81
2022/04/17 00:31:12;;;;;;;3.15;2.38;;;;;;;;;;5063228;28;20439;-81
2022/04/17 00:33:38;;;;;;;3.60;2.97;;;;;;;;;;5061451;28;20216;-81
2022/04/17 00:36:04;;;;;;;4.80;3.40;;;;;;;;;;5061400;28;20438;-82
2022/04/17 00:38:30;;;;;;;4.05;3.13;;;;;;;;;;5063068;28;20281;-82
2022/04/17 00:40:56;;;;;;;4.40;3.20;;;;;;;;;;5065290;28;20170;-81
2022/04/17 00:43:25;;;;;;;4.00;2.87;;;;;;;;;;5062863;28;20440;-82
2022/04/17 00:45:52;;;;;;;4.65;2.15;;;;;;;;;;5062414;28;20462;-82
2022/04/17 00:48:18;;;;;;;4.18;3.78;;;;;;;;;;5061048;28;20193;-81
2022/04/17 00:50:45;;;;;;;4.88;3.65;;;;;;;;;;5077656;28;20185;-81
2022/04/17 00:53:11;;;;;;;5.15;3.67;;;;;;;;;;5065085;28;20188;-81
2022/04/17 00:55:37;;;;;;;4.55;4.15;;;;;;;;;;5062402;28;20177;-81
2022/04/17 00:58:03;;;;;;;4.45;3.83;;;;;;;;;;5062437;28;20294;-81
2022/04/17 01:00:29;;;;;;;4.85;3.65;;;;;;;;;;5060702;28;20272;-81
2022/04/17 01:02:55;;;;;;;4.53;3.53;;;;;;;;;;5061838;28;20191;-82
2022/04/17 01:05:21;;;;;;;5.68;3.50;;;;;;;;;;5062177;28;20204;-82
2022/04/17 01:07:47;;;;;;;3.90;2.78;;;;;;;;;;5065217;28;20196;-81
2022/04/17 01:10:13;;;;;;;3.67;3.30;;;;;;;;;;5061464;28;20565;-81
2022/04/17 01:12:39;;;;;;;2.85;2.30;;;;;;;;;;5060426;28;20785;-82
2022/04/17 01:15:06;;;;;;;2.88;2.65;;;;;;;;;;5061199;28;20220;-81
2022/04/17 01:17:32;;;;;;;4.40;3.45;;;;;;;;;;5061447;28;20181;-81
2022/04/17 01:19:58;;;;;;;3.15;2.85;;;;;;;;;;5066418;28;20189;-81
2022/04/17 01:22:25;;;;;;;3.03;2.65;;;;;;;;;;5062674;28;20181;-82
2022/04/17 01:27:36;;;;;;;3.05;2.72;;;;;;;;;;5062114;28;20219;-82
2022/04/17 01:30:03;;;;;;;3.28;2.70;;;;;;;;;;5060909;28;20208;-82
2022/04/17 01:32:29;;;;;;;2.30;2.10;;;;;;;;;;5045902;28;20245;-82
2022/04/17 01:34:55;;;;;;;3.75;2.67;;;;;;;;;;5065284;28;20181;-82
2022/04/17 01:37:21;;;;;;;3.55;2.15;;;;;;;;;;5061678;28;20208;-82
2022/04/17 01:39:48;;;;;;;3.35;2.35;;;;;;;;;;5060864;28;20181;-82
2022/04/17 01:42:16;;;;;;;2.97;1.98;;;;;;;;;;5060862;28;20188;-82
2022/04/17 01:44:42;;;;;;;2.53;2.13;;;;;;;;;;5078670;28;20188;-81
2022/04/17 01:47:08;;;;;;;2.38;2.17;;;;;;;;;;5064786;28;20195;-82
2022/04/17 01:49:34;;;;;;;2.40;1.83;;;;;;;;;;5062235;28;20179;-82
2022/04/17 01:52:00;;;;;;;2.70;2.13;;;;;;;;;;5060406;28;20236;-82
2022/04/17 01:54:28;;;;;;;1.85;1.75;;;;;;;;;;5059994;28;20203;-82
2022/04/17 01:56:54;;;;;;;2.75;2.55;;;;;;;;;;5062421;28;20177;-82
2022/04/17 01:59:20;;;;;;;2.65;2.30;;;;;;;;;;5067459;28;20822;-81
2022/04/17 02:01:47;;;;;;;2.60;2.05;;;;;;;;;;5064186;28;20199;-82
2022/04/17 02:04:13;;;;;;;2.15;1.95;;;;;;;;;;5061275;28;20185;-82
2022/04/17 02:06:40;;;;;;;2.20;2.00;;;;;;;;;;5060904;28;20226;-82
2022/04/17 02:09:09;;;;;;;2.88;2.08;;;;;;;;;;5061326;28;20208;-82
2022/04/17 02:11:36;;;;;;;1.85;1.40;;;;;;;;;;5061154;28;20747;-82
2022/04/17 02:14:03;;;;;;;3.28;1.85;;;;;;;;;;5063748;28;20181;-82
2022/04/17 02:16:29;;;;;;;2.42;1.92;;;;;;;;;;5062579;28;20777;-82
2022/04/17 02:18:55;;;;;;;2.05;1.60;;;;;;;;;;5059599;28;20217;-82
2022/04/17 02:21:21;;;;;;;2.30;1.70;;;;;;;;;;5059462;28;20200;-82
2022/04/17 02:23:47;;;;;;;1.70;1.60;;;;;;;;;;5061864;28;20428;-82
2022/04/17 02:26:16;;;;;;;2.10;1.90;;;;;;;;;;5063309;28;20175;-82
2022/04/17 02:28:42;;;;;;;2.67;1.80;;;;;;;;;;5062540;28;20180;-82
2022/04/17 02:31:09;;;;;;;2.67;1.58;;;;;;;;;;5060969;28;20192;-82
2022/04/17 02:33:35;;;;;;;3.95;2.10;;;;;;;;;;5059140;28;20414;-81
2022/04/17 02:36:01;;;;;;;2.75;1.98;;;;;;;;;;5058811;28;20177;-82
2022/04/17 02:38:27;;;;;;;2.50;1.80;;;;;;;;;;5061439;28;20230;-82
2022/04/17 02:40:54;;;;;;;2.83;1.90;;;;;;;;;;5064453;28;20410;-82
2022/04/17 02:43:21;;;;;;;2.30;1.80;;;;;;;;;;5059616;28;20676;-81
2022/04/17 02:45:47;;;;;;;3.15;2.28;;;;;;;;;;5059519;28;20301;-81
2022/04/17 02:48:13;;;;;;;2.30;1.70;;;;;;;;;;5060631;28;20193;-81
2022/04/17 02:50:39;;;;;;;2.40;1.70;;;;;;;;;;5060332;28;20196;-82
2022/04/17 02:53:06;;;;;;;3.10;1.60;;;;;;;;;;5063339;28;20689;-82
2022/04/17 02:55:32;;;;;;;3.28;2.05;;;;;;;;;;5061833;28;20226;-82
2022/04/17 02:57:58;;;;;;;3.00;1.77;;;;;;;;;;5059008;28;20280;-82
2022/04/17 03:00:26;;;;;;;2.00;1.80;;;;;;;;;;5060830;28;20243;-82
2022/04/17 03:05:37;;;;;;;2.50;1.95;;;;;;;;;;5046325;28;20808;-81
2022/04/17 03:08:04;;;;;;;1.85;1.75;;;;;;;;;;5079244;28;20208;-82
2022/04/17 03:10:30;;;;;;;2.45;1.48;;;;;;;;;;5060257;28;20173;-82
2022/04/17 03:12:56;;;;;;;2.45;1.85;;;;;;;;;;5061643;28;20192;-82
2022/04/17 03:15:22;;;;;;;2.10;1.55;;;;;;;;;;5059232;28;20291;-82
2022/04/17 03:17:49;;;;;;;3.57;2.20;;;;;;;;;;5057967;28;20216;-82
2022/04/17 03:20:15;;;;;;;2.00;1.65;;;;;;;;;;5062461;28;20495;-82
2022/04/17 03:22:44;;;;;;;1.92;1.70;;;;;;;;;;5061505;28;20177;-82
2022/04/17 03:25:10;;;;;;;1.55;1.45;;;;;;;;;;5058933;28;20268;-82
2022/04/17 03:27:36;;;;;;;2.13;1.92;;;;;;;;;;5060497;28;20177;-81
2022/04/17 03:30:03;;;;;;;3.00;1.80;;;;;;;;;;5059778;28;20211;-82
2022/04/17 03:32:29;;;;;;;1.55;1.30;;;;;;;;;;5043240;28;20422;-82
2022/04/17 03:34:55;;;;;;;1.85;1.63;;;;;;;;;;5063033;28;20176;-82
2022/04/17 03:37:21;;;;;;;2.03;1.30;;;;;;;;;;5059704;28;20193;-82
2022/04/17 03:39:48;;;;;;;1.52;1.40;;;;;;;;;;5063605;28;20181;-82
2022/04/17 03:42:15;;;;;;;2.50;2.30;;;;;;;;;;5062835;28;20184;-82
2022/04/17 03:44:41;;;;;;;2.78;1.70;;;;;;;;;;5079316;28;20185;-82
2022/04/17 03:47:07;;;;;;;1.85;1.50;;;;;;;;;;5081355;28;20326;-81
2022/04/17 03:49:33;;;;;;;1.45;1.30;;;;;;;;;;5066890;28;20207;-81
2022/04/17 03:52:02;;;;;;;6.82;1.70;;;;;;;;;;5063956;28;20181;-81
2022/04/17 03:54:28;;;;;;;2.00;1.50;;;;;;;;;;5064606;28;20232;-82
2022/04/17 03:56:55;;;;;;;5.35;2.10;;;;;;;;;;5065339;28;20177;-82
2022/04/17 03:59:21;;;;;;;3.13;1.70;;;;;;;;;;5080393;28;20216;-82
2022/04/17 04:01:47;;;;;;;1.83;1.73;;;;;;;;;;5064958;28;20172;-82
2022/04/17 04:04:14;;;;;;;4.45;1.70;;;;;;;;;;5063078;28;20230;-82
2022/04/17 04:06:40;;;;;;;3.05;1.70;;;;;;;;;;5062070;28;20187;-82
2022/04/17 04:09:06;;;;;;;2.75;1.70;;;;;;;;;;5061715;28;20196;-82
2022/04/17 04:11:32;;;;;;;6.60;1.40;;;;;;;;;;5063743;28;20181;-82
2022/04/17 04:13:58;;;;;;;3.13;1.67;;;;;;;;;;5067156;28;20195;-82
2022/04/17 04:16:24;;;;;;;4.82;1.52;;;;;;;;;;5061827;28;20458;-81
2022/04/17 04:18:50;;;;;;;2.28;1.10;;;;;;;;;;5063187;28;20213;-82
2022/04/17 04:21:16;;;;;;;1.80;1.58;;;;;;;;;;5064925;28;20184;-82
2022/04/17 04:23:42;;;;;;;1.57;1.47;;;;;;;;;;5063624;28;20240;-82
2022/04/17 04:26:09;;;;;;;1.67;1.58;;;;;;;;;;5080996;28;20443;-82
2022/04/17 04:28:37;;;;;;;2.33;1.50;;;;;;;;;;5063816;28;20260;-82
2022/04/17 04:31:07;;;;;;;3.90;2.17;;;;;;;;;;5062802;28;20193;-82
2022/04/17 04:33:34;;;;;;;1.70;1.60;;;;;;;;;;5062936;28;20188;-82
2022/04/17 04:36:00;;;;;;;1.90;1.70;;;;;;;;;;5063576;28;20212;-82
2022/04/17 04:38:27;;;;;;;2.63;2.00;;;;;;;;;;5063769;28;20221;-82
2022/04/17 04:40:53;;;;;;;2.50;2.00;;;;;;;;;;5066523;28;20519;-82
2022/04/17 04:43:19;;;;;;;2.95;2.67;;;;;;;;;;5061791;28;20444;-82
2022/04/17 04:51:14;;;;;;;2.67;1.92;;;;;;;;;;5062637;28;20199;-82
2022/04/17 04:53:41;;;;;;;1.75;1.50;;;;;;;;;;5061624;28;20216;-82
2022/04/17 04:56:07;;;;;;;3.30;2.20;;;;;;;;;;5066113;28;20619;-82
2022/04/17 04:58:34;;;;;;;2.65;2.03;;;;;;;;;;5063431;28;20193;-82
2022/04/17 05:01:00;;;;;;;4.57;2.05;;;;;;;;;;5060459;28;20223;-82
2022/04/17 05:03:26;;;;;;;2.08;1.67;;;;;;;;;;5061532;28;20264;-82
2022/04/17 05:05:52;;;;;;;2.63;1.73;;;;;;;;;;5061267;28;20186;-82
2022/04/17 05:08:19;;;;;;;3.28;2.20;;;;;;;;;;5064281;28;20200;-82
2022/04/17 05:10:45;;;;;;;2.58;1.50;;;;;;;;;;5063469;28;20169;-82
2022/04/17 05:13:11;;;;;;;2.45;2.25;;;;;;;;;;5060958;28;20222;-82
2022/04/17 05:15:37;;;;;;;1.30;1.20;;;;;;;;;;5062749;28;20220;-82
2022/04/17 05:18:03;;;;;;;1.65;1.50;;;;;;;;;;5060500;28;20213;-82
2022/04/17 05:20:33;;;;;;;1.90;1.75;;;;;;;;;;5047392;28;20177;-82
2022/04/17 05:23:04;;;;;;;4.68;1.88;;;;;;;;;;5066405;28;20244;-82
2022/04/17 05:25:30;;;;;;;3.28;2.10;;;;;;;;;;5063849;28;20200;-82
2022/04/17 05:27:56;;;;;;;2.65;1.92;;;;;;;;;;5061994;28;20177;-82
2022/04/17 05:30:22;;;;;;;2.25;1.98;;;;;;;;;;5060290;28;20572;-82
2022/04/17 05:32:48;;;;;;;2.25;1.60;;;;;;;;;;5078011;28;20185;-82
2022/04/17 05:35:14;;;;;;;2.25;1.60;;;;;;;;;;5064284;28;20178;-82
2022/04/17 05:37:40;;;;;;;1.55;1.45;;;;;;;;;;5062034;28;20169;-82
2022/04/17 05:40:06;;;;;;;2.15;1.73;;;;;;;;;;5060196;28;20185;-82
2022/04/17 05:42:32;;;;;;;2.45;2.25;;;;;;;;;;5060348;28;20208;-82
2022/04/17 05:44:58;;;;;;;3.35;1.80;;;;;;;;;;5062554;28;20185;-82
2022/04/17 05:47:24;;;;;;;2.17;1.60;;;;;;;;;;5063664;28;20216;-82
2022/04/17 05:49:50;;;;;;;2.17;1.55;;;;;;;;;;5064453;28;20619;-82
2022/04/17 05:52:16;;;;;;;2.23;2.03;;;;;;;;;;5060954;28;20188;-82
2022/04/17 05:54:43;;;;;;;2.60;2.17;;;;;;;;;;5062277;28;20432;-82
2022/04/17 05:57:10;;;;;;;2.83;2.08;;;;;;;;;;5059953;28;20181;-82
2022/04/17 05:59:36;;;;;;;1.92;1.63;;;;;;;;;;5061012;28;20251;-82
2022/04/17 06:02:03;;;;;;;2.22;2.03;;;;;;;;;;5064270;28;20169;-82
2022/04/17 06:04:29;;;;;;;2.47;1.70;;;;;;;;;;5060410;28;20181;-82
2022/04/17 06:06:55;;;;;;;2.85;1.55;;;;;;;;;;5060055;28;20244;-83
2022/04/17 06:09:21;;;;;;;2.40;2.20;;;;;;;;;;5060436;28;20201;-81
2022/04/17 06:11:47;;;;;;;3.75;2.25;;;;;;;;;;5061671;28;20673;-82
2022/04/17 06:14:13;;;;;;;4.00;2.17;;;;;;;;;;5078120;28;20213;-82
2022/04/17 06:16:40;;;;;;;2.13;1.90;;;;;;;;;;5062598;28;20181;-82
2022/04/17 06:19:09;;;;;;;2.20;1.98;;;;;;;;;;5059680;28;20208;-82
2022/04/17 06:21:35;;;;;;;2.33;1.83;;;;;;;;;;5060839;28;20641;-82
2022/04/17 06:24:01;;;;;;;2.65;1.55;;;;;;;;;;5063441;28;20235;-82
2022/04/17 06:26:27;;;;;;;2.77;2.50;;;;;;;;;;5077428;28;20190;-82
2022/04/17 06:28:53;;;;;;;2.08;1.88;;;;;;;;;;5063161;28;20440;-82
2022/04/17 06:31:19;;;;;;;2.13;2.00;;;;;;;;;;5060305;28;20189;-82
2022/04/17 06:33:45;;;;;;;4.87;2.00;;;;;;;;;;5060690;28;20187;-81
2022/04/17 06:36:11;;;;;;;4.97;2.47;;;;;;;;;;5060770;28;20518;-82
2022/04/17 06:38:36;;;;;;;3.80;2.60;;;;;;;;;;5060994;28;20709;-82
2022/04/17 06:41:03;;;;;;;3.10;2.43;;;;;;;;;;5064248;28;20174;-82
2022/04/17 06:43:29;;;;;;;3.33;3.05;;;;;;;;;;5058997;28;20416;-83
2022/04/17 06:45:55;;;;;;;3.35;2.53;;;;;;;;;;5059123;28;20187;-83
2022/04/17 06:48:22;;;;;;;2.60;2.40;;;;;;;;;;5066859;28;20193;-83
2022/04/17 06:50:49;;;;;;;3.47;2.45;;;;;;;;;;5064004;28;20250;-86
2022/04/17 06:53:15;;;;;;;2.60;1.80;;;;;;;;;;5082855;28;20173;-86
2022/04/17 06:55:41;;;;;;;2.67;2.42;;;;;;;;;;5063620;28;20187;-86
2022/04/17 06:58:08;;;;;;;2.45;2.25;;;;;;;;;;5060669;28;20299;-84
2022/04/17 07:00:34;;;;;;;2.20;2.00;;;;;;;;;;5062489;28;20216;-85
2022/04/17 07:03:00;;;;;;;5.72;2.47;;;;;;;;;;5044677;28;20180;-86
2022/04/17 07:05:26;;;;;;;2.38;2.17;;;;;;;;;;5063557;28;20207;-86
2022/04/17 07:07:59;;;;;;;3.13;2.33;;;;;;;;;;5044948;28;20231;-86
2022/04/17 07:10:26;;;;;;;3.58;2.25;;;;;;;;;;5046437;28;20181;-86
2022/04/17 07:12:52;;;;;;;2.40;2.20;;;;;;;;;;5067718;28;20181;-86
2022/04/17 07:15:19;;;;;;;2.65;2.20;;;;;;;;;;5062017;28;20783;-85
2022/04/17 07:17:46;;;;;;;4.70;3.40;;;;;;;;;;5061243;28;20431;-87
2022/04/17 07:20:12;;;;;;;2.58;2.38;;;;;;;;;;5060521;28;20189;-85
2022/04/17 07:22:40;;;;;;;3.55;2.45;;;;;;;;;;5061802;28;20177;-85
2022/04/17 07:25:06;;;;;;;3.03;2.10;;;;;;;;;;5042741;28;20199;-86
2022/04/17 07:27:40;;;;;;;5.00;2.30;;;;;;;;;;5063148;28;20209;-84
2022/04/17 07:30:10;;;;;;;2.53;2.25;;;;;;;;;;5060160;28;20234;-84
2022/04/17 07:32:36;;;;;;;2.00;1.80;;;;;;;;;;5060112;28;20180;-85
2022/04/17 07:35:01;;;;;;;3.73;2.50;;;;;;;;;;5064596;28;20170;-85
2022/04/17 07:37:35;;;;;;;1.87;1.77;;;;;;;;;;5058483;28;20427;-85
2022/04/17 07:40:01;;;;;;;3.78;2.30;;;;;;;;;;5054301;28;20443;-84
2022/04/17 07:42:28;;;;;;;3.17;1.75;;;;;;;;;;5057513;28;20181;-84
2022/04/17 07:44:54;;;;;;;2.47;2.13;;;;;;;;;;5076664;28;20215;-85
2022/04/17 07:47:20;;;;;;;1.88;1.67;;;;;;;;;;5061557;28;20218;-84
2022/04/17 07:49:46;;;;;;;3.42;1.88;;;;;;;;;;5061027;28;20169;-85
2022/04/17 07:52:12;;;;;;;4.05;2.42;;;;;;;;;;5059970;28;20263;-86
2022/04/17 07:54:39;;;;;;;3.05;2.33;;;;;;;;;;5060105;28;20172;-86
2022/04/17 07:57:05;;;;;;;2.55;2.30;;;;;;;;;;5042946;28;20177;-84
2022/04/17 07:59:31;;;;;;;3.85;2.17;;;;;;;;;;5058152;28;20205;-84
2022/04/17 08:02:11;;;;;;;1.93;1.73;;;;;;;;;;5058118;28;20192;-84
2022/04/17 08:04:39;;;;;;;3.35;2.42;;;;;;;;;;5060343;28;20448;-85
2022/04/17 08:07:05;;;;;;;2.10;1.60;;;;;;;;;;5076066;28;20179;-84
2022/04/17 08:09:31;;;;;;;2.23;2.03;;;;;;;;;;5060876;28;20253;-84
2022/04/17 08:11:59;;;;;;;2.85;2.35;;;;;;;;;;5065966;28;20447;-87
2022/04/17 08:14:26;;;;;;;2.88;1.80;;;;;;;;;;5068696;28;20245;-87
2022/04/17 08:16:52;;;;;;;2.58;2.30;;;;;;;;;;5062579;28;20260;-85
2022/04/17 08:19:17;;;;;;;3.00;2.17;;;;;;;;;;5057634;28;20245;-86
2022/04/17 08:21:43;;;;;;;2.90;1.57;;;;;;;;;;5060875;28;20439;-86
2022/04/17 08:24:09;;;;;;;4.65;2.50;;;;;;;;;;5058836;28;20450;-84
2022/04/17 08:26:35;;;;;;;2.20;2.00;;;;;;;;;;5079125;28;20185;-85
2022/04/17 08:29:01;;;;;;;2.78;2.05;;;;;;;;;;5066879;28;20463;-86
2022/04/17 08:31:27;;;;;;;3.00;2.20;;;;;;;;;;5064169;28;20188;-87
2022/04/17 08:33:53;;;;;;;4.13;2.20;;;;;;;;;;5061613;28;20428;-86
2022/04/17 08:36:19;;;;;;;2.30;2.10;;;;;;;;;;5061935;28;20465;-91
2022/04/17 08:38:45;;;;;;;1.90;1.70;;;;;;;;;;5062660;28;20230;-85
2022/04/17 08:41:12;;;;;;;2.37;2.07;;;;;;;;;;5080868;28;20431;-87
2022/04/17 08:43:38;;;;;;;2.55;2.28;;;;;;;;;;5063374;28;20433;-86
2022/04/17 08:46:04;;;;;;;2.40;2.20;;;;;;;;;;5062010;28;20195;-88
2022/04/17 08:48:33;;;;;;;2.70;2.45;;;;;;;;;;5061308;28;20190;-90
2022/04/17 08:51:02;;;;;;;2.78;2.30;;;;;;;;;;5061366;28;20241;-85
2022/04/17 08:53:28;;;;;;;2.30;2.10;;;;;;;;;;5062125;28;20181;-86
2022/04/17 08:55:54;;;;;;;3.60;1.98;;;;;;;;;;5064519;28;20200;-82
2022/04/17 08:58:23;;;;;;;2.10;1.65;;;;;;;;;;5064117;28;20311;-86
2022/04/17 09:00:55;;;;;;;1.95;1.75;;;;;;;;;;5059952;28;20201;-86
2022/04/17 09:03:26;;;;;;;2.17;1.70;;;;;;;;;;5061231;28;20319;-87
2022/04/17 09:05:53;;;;;;;2.58;2.38;;;;;;;;;;5062196;28;20180;-86
2022/04/17 09:08:20;;;;;;;2.50;2.30;;;;;;;;;;5079585;28;20176;-88
2022/04/17 09:10:55;;;;;;;1.60;1.50;;;;;;;;;;5063780;28;20546;-87
2022/04/17 09:13:29;;;;;;;4.03;2.00;;;;;;;;;;5062437;28;20185;-86
2022/04/17 09:15:55;;;;;;;1.67;1.58;;;;;;;;;;5061958;28;20212;-86
2022/04/17 09:18:21;;;;;;;2.55;1.90;;;;;;;;;;5061905;28;20220;-87
2022/04/17 09:20:48;;;;;;;3.53;2.13;;;;;;;;;;5078907;28;20184;-88
2022/04/17 09:23:14;;;;;;;3.42;3.13;;;;;;;;;;5080894;28;20180;-90
2022/04/17 09:25:45;;;;;;;2.53;1.92;;;;;;;;;;5062209;28;20684;-85
2022/04/17 09:28:11;;;;;;;2.53;1.90;;;;;;;;;;5068935;28;20195;-86
2022/04/17 09:30:42;;;;;;;2.47;2.28;;;;;;;;;;5066269;28;20199;-85
2022/04/17 09:33:17;;;;;;;1.67;1.58;;;;;;;;;;5063348;28;20218;-84
2022/04/17 09:35:56;;;;;;;1.90;1.80;;;;;;;;;;5076981;28;20372;-83
2022/04/17 09:38:31;;;;;;;2.10;1.80;;;;;;;;;;5079301;28;20223;-89
2022/04/17 09:41:07;;;;;;;3.03;1.73;;;;;;;;;;5064998;28;20172;-92
2022/04/17 09:43:35;;;;;;;2.83;2.13;;;;;;;;;;5062044;28;20173;-87
2022/04/17 09:46:04;;;;;;;2.22;1.65;;;;;;;;;;5061305;28;20236;-88
2022/04/17 09:48:35;;;;;;;2.60;2.30;;;;;;;;;;5060834;28;20196;-86
2022/04/17 09:51:02;;;;;;;2.65;2.00;;;;;;;;;;5061534;28;20181;-86
2022/04/17 09:53:32;;;;;;;2.42;2.22;;;;;;;;;;5062754;28;20182;-87
2022/04/17 09:56:05;;;;;;;7.10;2.38;;;;;;;;;;5066242;28;20250;-85
2022/04/17 09:58:31;;;;;;;2.10;1.90;;;;;;;;;;5060915;28;20215;-83
2022/04/17 10:00:58;;;;;;;2.42;2.13;;;;;;;;;;5071050;28;20188;-86
2022/04/17 10:03:24;;;;;;;2.28;2.08;;;;;;;;;;5076239;28;20176;-80
2022/04/17 10:05:50;;;;;;;3.20;2.03;;;;;;;;;;5042304;28;20205;-86
2022/04/17 10:08:16;;;;;;;2.85;2.65;;;;;;;;;;5064012;28;20443;-81
2022/04/17 10:10:43;;;;;;;4.23;2.33;;;;;;;;;;5062100;28;20188;-81
2022/04/17 10:13:09;;;;;;;2.08;1.92;;;;;;;;;;5061928;28;20493;-82
2022/04/17 10:15:35;;;;;;;2.20;2.03;;;;;;;;;;5059053;28;20635;-82
2022/04/17 10:18:03;;;;;;;2.40;2.20;;;;;;;;;;5059606;28;20227;-81
2022/04/17 10:20:30;;;;;;;2.78;2.58;;;;;;;;;;5061283;28;20484;-81
2022/04/17 10:23:01;;;;;;;2.47;1.70;;;;;;;;;;5064851;28;20174;-81
2022/04/17 10:25:27;;;;;;;2.15;1.95;;;;;;;;;;5061866;28;20319;-80
2022/04/17 10:27:57;;;;;;;2.00;1.80;;;;;;;;;;5060254;28;20181;-82
2022/04/17 10:30:34;;;;;;;3.88;2.53;;;;;;;;;;5060341;28;20238;-80
2022/04/17 10:33:19;;;;;;;5.70;2.03;;;;;;;;;;5059597;28;20727;-80
2022/04/17 10:36:02;;;;;;;2.25;2.05;;;;;;;;;;5044879;28;20224;-81
2022/04/17 10:38:40;;;;;;;1.98;1.73;;;;;;;;;;5061536;28;20224;-82
2022/04/17 10:41:07;;;;;;;5.70;2.35;;;;;;;;;;5060654;28;20169;-82
2022/04/17 10:43:43;;;;;;;1.92;1.73;;;;;;;;;;5060873;28;20276;-80
2022/04/17 10:46:15;;;;;;;3.28;1.70;;;;;;;;;;5060537;28;20192;-80
2022/04/17 10:48:48;;;;;;;2.67;2.47;;;;;;;;;;5058674;28;20595;-81
2022/04/17 10:51:34;;;;;;;2.50;2.20;;;;;;;;;;5060941;28;20176;-80
2022/04/17 10:54:03;;;;;;;2.13;1.92;;;;;;;;;;5060676;28;20187;-80
2022/04/17 10:56:29;;;;;;;2.67;2.00;;;;;;;;;;5061227;28;20228;-81
2022/04/17 10:58:56;;;;;;;2.42;2.22;;;;;;;;;;5063604;28;20283;-81
2022/04/17 11:01:41;;;;;;;1.95;1.67;;;;;;;;;;5060694;28;20192;-82
2022/04/17 11:04:17;;;;;;;3.05;2.30;;;;;;;;;;5059836;28;20196;-81
2022/04/17 11:06:44;;;;;;;3.03;2.17;;;;;;;;;;5059575;28;20185;-81
2022/04/17 11:09:12;;;;;;;1.92;1.50;;;;;;;;;;5059945;28;20193;-81
2022/04/17 11:11:39;;;;;;;2.83;2.53;;;;;;;;;;5059344;28;20204;-83
2022/04/17 11:14:27;;;;;;;2.50;2.20;;;;;;;;;;5063565;28;20227;-83
2022/04/17 11:16:54;;;;;;;4.20;1.95;;;;;;;;;;5062293;28;20200;-82
2022/04/17 11:19:22;;;;;;;2.67;1.65;;;;;;;;;;5058706;28;20205;-85
2022/04/17 11:21:54;;;;;;;1.98;1.70;;;;;;;;;;5058771;28;20177;-82
2022/04/17 11:24:21;;;;;;;2.63;2.10;;;;;;;;;;5061978;28;20252;-79
2022/04/17 11:26:53;;;;;;;2.78;2.33;;;;;;;;;;5059391;28;20185;-83
2022/04/17 11:29:39;;;;;;;2.42;2.20;;;;;;;;;;5076874;28;20189;-81
2022/04/17 11:32:17;;;;;;;1.88;1.70;;;;;;;;;;5060021;28;20186;-84
2022/04/17 11:34:43;;;;;;;2.92;1.90;;;;;;;;;;5060435;28;20182;-81
2022/04/17 11:37:09;;;;;;;2.47;1.83;;;;;;;;;;5059051;28;20193;-81
2022/04/17 11:39:38;;;;;;;4.50;2.33;;;;;;;;;;5060270;28;20262;-82
2022/04/17 11:42:05;;;;;;;1.50;1.40;;;;;;;;;;5059025;28;20449;-81
2022/04/17 11:44:32;;;;;;;3.13;1.43;;;;;;;;;;5043107;28;20431;-83
2022/04/17 11:46:58;;;;;;;4.15;2.10;;;;;;;;;;5063502;28;20418;-82
2022/04/17 11:49:24;;;;;;;4.57;1.50;;;;;;;;;;5058258;28;20255;-81
2022/04/17 11:51:50;;;;;;;2.00;1.80;;;;;;;;;;5058844;28;20533;-81
2022/04/17 11:54:32;;;;;;;1.73;1.60;;;;;;;;;;5060410;28;20190;-80
2022/04/17 11:56:58;;;;;;;1.70;1.60;;;;;;;;;;5058837;28;20445;-81
2022/04/17 11:59:24;;;;;;;2.50;1.63;;;;;;;;;;5061842;28;20207;-80
2022/04/17 12:02:09;;;;;;;1.73;1.63;;;;;;;;;;5065105;28;20794;-88
2022/04/17 12:04:36;;;;;;;2.85;2.50;;;;;;;;;;5064401;28;20419;-82
2022/04/17 12:07:02;;;;;;;1.48;1.38;;;;;;;;;;5062105;28;20170;-84
2022/04/17 12:09:28;;;;;;;1.95;1.42;;;;;;;;;;5063735;28;20210;-86
2022/04/17 12:11:54;;;;;;;2.50;1.60;;;;;;;;;;5063991;28;20248;-87
2022/04/17 12:14:30;;;;;;;1.80;1.40;;;;;;;;;;5080742;28;20470;-81
2022/04/17 12:16:56;;;;;;;1.87;1.40;;;;;;;;;;5067047;28;20449;-91
2022/04/17 12:19:22;;;;;;;1.50;1.20;;;;;;;;;;5062637;28;20460;-84
2022/04/17 12:21:48;;;;;;;2.30;1.80;;;;;;;;;;5061810;28;20400;-80
2022/04/17 12:24:15;;;;;;;2.17;1.40;;;;;;;;;;5063698;28;20435;-83
2022/04/17 12:26:41;;;;;;;2.13;1.50;;;;;;;;;;5062488;28;20498;-80
2022/04/17 12:29:07;;;;;;;2.17;1.77;;;;;;;;;;5081486;28;20840;-79
2022/04/17 12:31:37;;;;;;;3.37;1.57;;;;;;;;;;5064406;28;20457;-80
2022/04/17 12:34:18;;;;;;;1.83;1.73;;;;;;;;;;5062841;28;21138;-80
2022/04/17 12:36:44;;;;;;;2.23;1.40;;;;;;;;;;5061874;28;20439;-80
2022/04/17 12:39:10;;;;;;;1.93;1.77;;;;;;;;;;5063269;28;20455;-80
2022/04/17 12:41:42;;;;;;;1.60;1.37;;;;;;;;;;5062962;28;20435;-81
2022/04/17 12:44:08;;;;;;;1.47;1.37;;;;;;;;;;5081254;28;20408;-84
2022/04/17 12:46:35;;;;;;;2.77;1.60;;;;;;;;;;5062818;28;20465;-82
2022/04/17 12:49:01;;;;;;;2.70;1.20;;;;;;;;;;5063188;28;20510;-80
2022/04/17 12:51:27;;;;;;;1.70;1.30;;;;;;;;;;5062678;28;20505;-85
2022/04/17 12:53:53;;;;;;;1.50;1.40;;;;;;;;;;5078337;28;20499;-81
2022/04/17 12:56:24;;;;;;;1.90;1.77;;;;;;;;;;5065409;28;20426;-80
2022/04/17 12:58:55;;;;;;;1.47;1.37;;;;;;;;;;5064263;28;20461;-80
2022/04/17 13:01:22;;;;;;;1.37;1.27;;;;;;;;;;5061210;28;20447;-82
2022/04/17 13:03:48;;;;;;;2.43;1.40;;;;;;;;;;5062428;28;20435;-83
2022/04/17 13:06:21;;;;;;;2.03;1.83;;;;;;;;;;5062942;28;20481;-80
2022/04/17 13:09:06;;;;;;;2.97;2.77;;;;;;;;;;5061641;28;20446;-84
2022/04/17 13:11:42;;;;;;;2.03;1.93;;;;;;;;;;5045708;28;20439;-81
2022/04/17 13:14:09;;;;;;;1.53;1.40;;;;;;;;;;5062027;28;20486;-79
2022/04/17 13:16:35;;;;;;;3.40;1.77;;;;;;;;;;5063856;28;20923;-82
2022/04/17 13:19:02;;;;;;;1.63;1.53;;;;;;;;;;5060691;28;20459;-80
2022/04/17 13:21:28;;;;;;;1.80;1.70;;;;;;;;;;5061193;28;20434;-88
2022/04/17 13:23:54;;;;;;;1.60;1.50;;;;;;;;;;5062426;28;20439;-83
2022/04/17 13:26:21;;;;;;;1.27;1.17;;;;;;;;;;5064069;28;20422;-81
2022/04/17 13:28:47;;;;;;;1.60;1.47;;;;;;;;;;5062921;28;20435;-79
2022/04/17 13:31:13;;;;;;;2.30;1.63;;;;;;;;;;5060063;28;20496;-80
2022/04/17 13:33:39;;;;;;;1.60;1.50;;;;;;;;;;5063544;28;20431;-80
2022/04/17 13:36:05;;;;;;;1.97;1.70;;;;;;;;;;5062197;28;20435;-80
2022/04/17 13:38:31;;;;;;;1.53;1.40;;;;;;;;;;5047067;28;20534;-80
2022/04/17 13:40:57;;;;;;;3.43;1.80;;;;;;;;;;5064993;28;20423;-84
2022/04/17 13:43:24;;;;;;;2.93;2.07;;;;;;;;;;5061913;28;20893;-89
2022/04/17 13:45:50;;;;;;;2.50;1.77;;;;;;;;;;5061562;28;20463;-80
2022/04/17 13:48:16;;;;;;;2.33;1.97;;;;;;;;;;5060630;28;20455;-80
2022/04/17 13:50:42;;;;;;;1.50;1.40;;;;;;;;;;5062089;28;20459;-81
2022/04/17 13:53:08;;;;;;;1.73;1.57;;;;;;;;;;5064887;28;20415;-80
2022/04/17 13:55:35;;;;;;;2.60;1.70;;;;;;;;;;5062917;28;20424;-83
2022/04/17 13:58:01;;;;;;;1.30;1.17;;;;;;;;;;5063102;28;20477;-80
2022/04/17 14:00:27;;;;;;;1.83;1.30;;;;;;;;;;5060899;28;20437;-84
2022/04/17 14:02:53;;;;;;;1.87;1.23;;;;;;;;;;5061199;28;20823;-83
2022/04/17 14:05:19;;;;;;;1.10;1.00;;;;;;;;;;5063159;28;20421;-82
2022/04/17 14:07:46;;;;;;;1.60;1.20;;;;;;;;;;5062317;28;20413;-79
2022/04/17 14:10:12;;;;;;;1.33;1.23;;;;;;;;;;5061162;28;20489;-80
2022/04/17 14:12:39;;;;;;;1.83;1.10;;;;;;;;;;5061019;28;20409;-79
2022/04/17 14:15:05;;;;;;;1.77;1.13;;;;;;;;;;5060266;28;20440;-80
2022/04/17 14:17:31;;;;;;;2.77;1.50;;;;;;;;;;5046360;28;20435;-79
2022/04/17 14:19:57;;;;;;;2.63;1.70;;;;;;;;;;5064505;28;20465;-79
2022/04/17 14:22:24;;;;;;;1.60;1.43;;;;;;;;;;5061353;28;20437;-80
2022/04/17 14:24:53;;;;;;;1.83;1.20;;;;;;;;;;5059637;28;20491;-79
2022/04/17 14:27:20;;;;;;;1.30;1.20;;;;;;;;;;5059266;28;20444;-80
2022/04/17 14:29:46;;;;;;;1.57;1.20;;;;;;;;;;5061083;28;20417;-81
2022/04/17 14:32:12;;;;;;;2.40;1.03;;;;;;;;;;5063699;28;20479;-80
2022/04/17 14:34:38;;;;;;;1.50;1.20;;;;;;;;;;5060894;28;20400;-79
2022/04/17 14:37:05;;;;;;;1.30;1.20;;;;;;;;;;5061269;28;20443;-80
2022/04/17 14:39:30;;;;;;;4.03;1.53;;;;;;;;;;5060583;28;20438;-80
2022/04/17 14:41:56;;;;;;;1.47;1.30;;;;;;;;;;5058878;28;20459;-79
2022/04/17 14:44:22;;;;;;;1.30;1.20;;;;;;;;;;5063207;28;20395;-81
2022/04/17 14:46:48;;;;;;;1.57;1.10;;;;;;;;;;5064377;28;20398;-83
2022/04/17 14:49:14;;;;;;;1.33;1.23;;;;;;;;;;5059322;28;20440;-81
2022/04/17 14:51:41;;;;;;;1.47;1.27;;;;;;;;;;5059436;28;20467;-79
2022/04/17 14:54:13;;;;;;;1.37;1.10;;;;;;;;;;5060561;28;20411;-79
2022/04/17 14:56:39;;;;;;;1.40;1.30;;;;;;;;;;5060470;28;20863;-79